createdAt,value
2017-12-03T00:01:02.941Z,174.40
2017-12-03T00:03:30.364Z,171.97
2017-12-03T00:05:57.792Z,171.67
2017-12-03T00:08:26.018Z,153.57
2017-12-03T00:10:53.444Z,160.43
2017-12-03T00:13:21.653Z,162.50
2017-12-03T00:15:49.976Z,158.87
2017-12-03T00:18:17.432Z,152.80
2017-12-03T00:20:44.856Z,157.77
2017-12-03T00:23:12.349Z,157.23
2017-12-03T00:25:39.791Z,153.73
2017-12-03T00:28:07.224Z,153.57
2017-12-03T00:30:35.424Z,155.83
2017-12-03T00:33:02.924Z,149.17
2017-12-03T00:35:30.453Z,141.00
2017-12-03T00:37:57.903Z,154.20
2017-12-03T00:40:25.332Z,164.47
2017-12-03T00:42:52.767Z,159.63
2017-12-03T00:45:20.981Z,155.13
2017-12-03T00:47:48.452Z,152.27
2017-12-03T00:50:15.885Z,160.77
2017-12-03T00:52:43.372Z,163.67
2017-12-03T00:55:10.824Z,165.13
2017-12-03T00:57:38.276Z,146.50
2017-12-03T01:00:05.728Z,143.37
2017-12-03T01:02:33.156Z,165.53
2017-12-03T01:05:01.359Z,155.23
2017-12-03T01:07:28.804Z,162.53
2017-12-03T01:09:56.312Z,166.87
2017-12-03T01:12:23.716Z,158.10
2017-12-03T01:14:51.156Z,149.87
2017-12-03T01:17:19.349Z,157.13
2017-12-03T01:19:46.800Z,159.17
2017-12-03T01:22:15.198Z,154.33
2017-12-03T01:24:42.604Z,161.53
2017-12-03T01:27:10.116Z,164.30
2017-12-03T01:29:37.564Z,162.37
2017-12-03T01:32:04.999Z,156.40
2017-12-03T01:34:33.199Z,169.50
2017-12-03T01:37:00.636Z,171.43
2017-12-03T01:39:28.136Z,172.97
2017-12-03T01:41:55.581Z,173.87
2017-12-03T01:44:23.027Z,179.60
2017-12-03T01:46:50.497Z,148.90
2017-12-03T01:49:17.924Z,168.53
2017-12-03T01:51:45.369Z,151.90
2017-12-03T01:54:13.556Z,153.87
2017-12-03T01:56:40.992Z,175.03
2017-12-03T01:59:09.205Z,163.80
2017-12-03T02:01:36.668Z,156.17
2017-12-03T02:04:04.120Z,163.53
2017-12-03T02:06:31.568Z,154.67
2017-12-03T02:08:58.988Z,171.47
2017-12-03T02:11:26.425Z,171.30
2017-12-03T02:13:53.913Z,171.00
2017-12-03T02:16:21.376Z,163.80
2017-12-03T02:18:48.804Z,165.83
2017-12-03T02:21:16.292Z,164.77
2017-12-03T02:23:43.717Z,180.90
2017-12-03T02:26:11.206Z,168.07
2017-12-03T02:28:38.649Z,173.87
2017-12-03T02:31:06.085Z,174.77
2017-12-03T02:33:34.285Z,170.47
2017-12-03T02:36:01.749Z,173.33
2017-12-03T02:38:29.172Z,170.10
2017-12-03T02:40:56.673Z,166.73
2017-12-03T02:43:24.216Z,163.97
2017-12-03T02:45:51.665Z,167.50
2017-12-03T02:48:19.141Z,170.43
2017-12-03T02:50:46.582Z,182.37
2017-12-03T02:53:14.013Z,182.07
2017-12-03T02:55:41.444Z,161.07
2017-12-03T02:58:08.890Z,179.67
2017-12-03T03:00:36.317Z,173.77
2017-12-03T03:03:03.752Z,187.40
2017-12-03T03:05:31.196Z,165.10
2017-12-03T03:07:59.398Z,175.00
2017-12-03T03:10:26.828Z,178.83
2017-12-03T03:12:54.324Z,168.83
2017-12-03T03:15:21.753Z,164.00
2017-12-03T03:17:49.176Z,156.40
2017-12-03T03:20:16.694Z,164.90
2017-12-03T03:22:44.124Z,165.13
2017-12-03T03:25:11.562Z,167.47
2017-12-03T03:27:39.784Z,158.47
2017-12-03T03:30:07.219Z,153.13
2017-12-03T03:32:34.642Z,162.07
2017-12-03T03:35:02.081Z,158.10
2017-12-03T03:37:29.518Z,162.33
2017-12-03T03:39:56.965Z,166.13
2017-12-03T03:42:24.396Z,169.00
2017-12-03T03:44:51.834Z,170.37
2017-12-03T03:47:20.032Z,153.50
2017-12-03T03:49:47.536Z,164.23
2017-12-03T03:52:15.064Z,167.23
2017-12-03T03:54:42.532Z,168.77
2017-12-03T03:57:09.976Z,152.93
2017-12-03T03:59:37.408Z,156.63
2017-12-03T04:02:04.892Z,155.80
2017-12-03T04:04:32.359Z,167.47
2017-12-03T04:06:59.788Z,155.83
2017-12-03T04:09:27.217Z,149.07
2017-12-03T04:11:55.420Z,153.90
2017-12-03T04:14:22.948Z,170.73
2017-12-03T04:16:51.144Z,166.17
2017-12-03T04:19:18.580Z,172.80
2017-12-03T04:21:46.016Z,169.27
2017-12-03T04:24:13.548Z,137.47
2017-12-03T04:26:40.988Z,158.07
2017-12-03T04:29:08.471Z,170.90
2017-12-03T04:31:35.888Z,161.60
2017-12-03T04:34:03.376Z,168.70
2017-12-03T04:36:30.832Z,179.50
2017-12-03T04:38:58.257Z,158.73
2017-12-03T04:41:25.692Z,172.87
2017-12-03T04:43:53.205Z,148.10
2017-12-03T04:46:20.632Z,183.97
2017-12-03T04:48:48.072Z,164.93
2017-12-03T04:51:16.294Z,157.33
2017-12-03T04:53:43.753Z,160.77
2017-12-03T04:56:11.205Z,163.87
2017-12-03T04:58:38.636Z,154.93
2017-12-03T05:01:06.121Z,161.13
2017-12-03T05:03:33.584Z,169.17
2017-12-03T05:06:01.038Z,159.70
2017-12-03T05:08:28.468Z,164.27
2017-12-03T05:10:55.908Z,173.27
2017-12-03T05:13:24.128Z,164.90
2017-12-03T05:15:51.556Z,158.47
2017-12-03T05:18:18.997Z,148.67
2017-12-03T05:20:47.217Z,180.07
2017-12-03T05:23:14.645Z,169.17
2017-12-03T05:25:42.085Z,169.83
2017-12-03T05:28:10.311Z,157.37
2017-12-03T05:30:37.760Z,183.20
2017-12-03T05:33:05.194Z,158.40
2017-12-03T05:35:32.624Z,172.40
2017-12-03T05:38:00.849Z,175.17
2017-12-03T05:40:28.296Z,158.10
2017-12-03T05:42:55.761Z,164.27
2017-12-03T05:45:23.188Z,171.00
2017-12-03T05:47:50.672Z,149.00
2017-12-03T05:50:18.987Z,169.53
2017-12-03T05:52:46.513Z,173.33
2017-12-03T05:55:13.964Z,162.43
2017-12-03T05:57:41.400Z,166.37
2017-12-03T06:00:08.879Z,163.77
2017-12-03T06:02:36.330Z,152.23
2017-12-03T06:05:03.761Z,173.80
2017-12-03T06:07:31.962Z,167.60
2017-12-03T06:09:59.404Z,171.80
2017-12-03T06:12:26.828Z,170.20
2017-12-03T06:14:54.260Z,167.53
2017-12-03T06:17:21.714Z,154.10
2017-12-03T06:19:49.146Z,154.90
2017-12-03T06:22:16.576Z,177.33
2017-12-03T06:24:44.014Z,165.33
2017-12-03T06:27:11.444Z,165.57
2017-12-03T06:29:38.980Z,186.30
2017-12-03T06:32:06.436Z,166.93
2017-12-03T06:34:33.896Z,165.97
2017-12-03T06:37:01.353Z,163.57
2017-12-03T06:39:28.816Z,147.73
2017-12-03T06:41:56.248Z,143.57
2017-12-03T06:44:23.738Z,149.97
2017-12-03T06:46:51.280Z,137.37
2017-12-03T06:49:18.740Z,153.97
2017-12-03T06:51:46.173Z,156.17
2017-12-03T06:54:13.652Z,150.57
2017-12-03T06:56:41.108Z,138.23
2017-12-03T06:59:08.544Z,164.90
2017-12-03T07:01:35.984Z,148.13
2017-12-03T07:04:04.196Z,164.70
2017-12-03T07:06:31.632Z,160.07
2017-12-03T07:08:59.069Z,158.50
2017-12-03T07:11:26.506Z,150.13
2017-12-03T07:13:53.937Z,168.83
2017-12-03T07:16:21.388Z,155.10
2017-12-03T07:18:48.816Z,165.33
2017-12-03T07:21:16.245Z,153.13
2017-12-03T07:23:44.462Z,156.47
2017-12-03T07:26:11.886Z,163.80
2017-12-03T07:28:40.097Z,177.33
2017-12-03T07:31:07.560Z,182.00
2017-12-03T07:33:34.993Z,158.20
2017-12-03T07:36:02.434Z,161.67
2017-12-03T07:38:30.639Z,178.60
2017-12-03T07:40:58.072Z,144.40
2017-12-03T07:43:25.500Z,161.63
2017-12-03T07:45:53.029Z,147.23
2017-12-03T07:48:20.484Z,161.67
2017-12-03T07:50:47.933Z,150.53
2017-12-03T07:53:15.395Z,155.07
2017-12-03T07:55:42.853Z,173.90
2017-12-03T07:58:10.311Z,146.00
2017-12-03T08:00:37.772Z,155.60
2017-12-03T08:03:05.214Z,156.97
2017-12-03T08:05:32.649Z,158.70
2017-12-03T08:08:00.143Z,155.17
2017-12-03T08:10:27.593Z,147.47
2017-12-03T08:12:55.053Z,161.50
2017-12-03T08:15:22.498Z,147.20
2017-12-03T08:17:49.928Z,162.27
2017-12-03T08:20:17.360Z,149.63
2017-12-03T08:22:44.801Z,153.97
2017-12-03T08:25:13.736Z,142.87
2017-12-03T08:27:41.225Z,155.43
2017-12-03T08:30:08.672Z,149.50
2017-12-03T08:32:36.254Z,149.20
2017-12-03T08:35:04.406Z,155.37
2017-12-03T08:37:31.854Z,174.93
2017-12-03T08:39:59.280Z,166.43
2017-12-03T08:42:27.516Z,170.03
2017-12-03T08:44:54.966Z,161.90
2017-12-03T08:47:22.424Z,197.40
2017-12-03T08:49:49.852Z,161.63
2017-12-03T08:52:17.289Z,174.37
2017-12-03T08:54:45.489Z,168.37
2017-12-03T08:57:12.921Z,167.43
2017-12-03T08:59:41.145Z,179.43
2017-12-03T09:02:08.580Z,173.97
2017-12-03T09:04:36.028Z,162.80
2017-12-03T09:07:03.513Z,189.60
2017-12-03T09:09:30.977Z,196.57
2017-12-03T09:11:58.400Z,181.87
2017-12-03T09:14:25.847Z,171.13
2017-12-03T09:16:54.061Z,174.07
2017-12-03T09:19:21.522Z,169.40
2017-12-03T09:21:48.957Z,164.07
2017-12-03T09:24:16.440Z,164.67
2017-12-03T09:26:43.869Z,181.17
2017-12-03T09:29:12.060Z,173.53
2017-12-03T09:31:39.470Z,163.50
2017-12-03T09:34:07.668Z,179.00
2017-12-03T09:36:35.156Z,166.60
2017-12-03T09:39:03.352Z,171.77
2017-12-03T09:41:30.845Z,176.23
2017-12-03T09:43:58.293Z,181.53
2017-12-03T09:46:25.752Z,170.80
2017-12-03T09:48:53.300Z,175.93
2017-12-03T09:51:20.721Z,171.63
2017-12-03T09:53:48.917Z,188.77
2017-12-03T09:56:16.346Z,213.27
2017-12-03T09:58:44.564Z,195.40
2017-12-03T10:01:12.032Z,179.00
2017-12-03T10:03:39.460Z,189.23
2017-12-03T10:06:06.948Z,173.67
2017-12-03T10:08:34.376Z,194.77
2017-12-03T10:11:01.861Z,207.97
2017-12-03T10:13:29.308Z,181.07
2017-12-03T10:15:56.795Z,205.77
2017-12-03T10:18:24.230Z,175.77
2017-12-03T10:20:51.660Z,185.07
2017-12-03T10:23:19.153Z,170.37
2017-12-03T10:25:46.613Z,186.73
2017-12-03T10:28:14.169Z,164.67
2017-12-03T10:30:41.610Z,166.47
2017-12-03T10:33:09.033Z,181.63
2017-12-03T10:35:37.245Z,192.30
2017-12-03T10:38:18.424Z,183.30
2017-12-03T10:40:45.880Z,169.50
2017-12-03T10:43:13.329Z,188.47
2017-12-03T10:45:40.804Z,177.43
2017-12-03T10:48:08.253Z,202.23
2017-12-03T10:50:35.684Z,194.97
2017-12-03T10:53:03.112Z,192.03
2017-12-03T10:55:31.331Z,218.40
2017-12-03T10:57:58.802Z,192.10
2017-12-03T11:00:26.259Z,200.47
2017-12-03T11:02:53.704Z,180.90
2017-12-03T11:05:21.135Z,197.77
2017-12-03T11:07:49.347Z,188.97
2017-12-03T11:10:16.826Z,185.70
2017-12-03T11:12:44.264Z,175.40
2017-12-03T11:15:11.808Z,179.57
2017-12-03T11:17:39.280Z,209.57
2017-12-03T11:20:06.720Z,179.07
2017-12-03T11:22:34.141Z,211.33
2017-12-03T11:25:02.352Z,188.83
2017-12-03T11:27:29.829Z,205.97
2017-12-03T11:29:57.279Z,213.20
2017-12-03T11:32:24.724Z,208.97
2017-12-03T11:34:52.158Z,236.53
2017-12-03T11:37:20.481Z,238.30
2017-12-03T11:39:47.920Z,243.50
2017-12-03T11:42:15.392Z,247.43
2017-12-03T11:44:42.817Z,243.07
2017-12-03T11:47:10.299Z,219.00
2017-12-03T11:49:37.744Z,229.67
2017-12-03T11:52:05.248Z,241.13
2017-12-03T11:54:32.685Z,228.10
2017-12-03T11:57:00.115Z,211.20
2017-12-03T11:59:27.540Z,191.37
2017-12-03T12:01:55.762Z,177.17
2017-12-03T12:04:23.188Z,196.37
2017-12-03T12:06:50.676Z,170.37
2017-12-03T12:09:18.133Z,152.13
2017-12-03T12:11:45.574Z,158.13
2017-12-03T12:14:13.003Z,148.83
2017-12-03T12:16:41.412Z,146.80
2017-12-03T12:19:08.816Z,109.47
2017-12-03T12:21:36.261Z,120.20
2017-12-03T12:24:03.709Z,129.17
2017-12-03T12:26:31.146Z,123.43
2017-12-03T12:28:58.572Z,120.70
2017-12-03T12:31:26.021Z,132.33
2017-12-03T12:33:54.224Z,115.20
2017-12-03T12:36:21.656Z,119.17
2017-12-03T12:38:50.006Z,103.53
2017-12-03T12:41:17.421Z,99.77
2017-12-03T12:43:44.856Z,111.43
2017-12-03T12:46:12.332Z,115.17
2017-12-03T12:48:39.741Z,110.97
2017-12-03T12:51:07.939Z,133.57
2017-12-03T12:53:35.377Z,107.60
2017-12-03T12:56:03.580Z,106.73
2017-12-03T12:58:31.052Z,127.17
2017-12-03T13:00:58.516Z,152.83
2017-12-03T13:03:25.952Z,141.33
2017-12-03T13:05:53.817Z,143.70
2017-12-03T13:08:21.313Z,139.07
2017-12-03T13:10:48.852Z,135.37
2017-12-03T13:13:16.304Z,140.57
2017-12-03T13:15:43.732Z,136.00
2017-12-03T13:18:11.934Z,142.93
2017-12-03T13:20:39.396Z,135.73
2017-12-03T13:23:06.877Z,132.10
2017-12-03T13:25:34.309Z,125.17
2017-12-03T13:28:01.774Z,121.43
2017-12-03T13:30:29.219Z,122.03
2017-12-03T13:32:56.689Z,139.20
2017-12-03T13:35:24.121Z,114.83
2017-12-03T13:37:51.581Z,123.17
2017-12-03T13:40:19.012Z,124.63
2017-12-03T13:42:47.212Z,120.20
2017-12-03T13:45:14.652Z,120.70
2017-12-03T13:47:42.868Z,125.37
2017-12-03T13:50:10.301Z,124.43
2017-12-03T13:52:37.740Z,127.03
2017-12-03T13:55:06.045Z,140.97
2017-12-03T13:57:33.512Z,129.17
2017-12-03T14:00:00.959Z,131.10
2017-12-03T14:02:28.386Z,136.33
2017-12-03T14:04:56.589Z,131.67
2017-12-03T14:07:24.037Z,144.03
2017-12-03T14:09:51.465Z,163.37
2017-12-03T14:12:19.665Z,145.23
2017-12-03T14:14:47.173Z,163.50
2017-12-03T14:17:14.619Z,178.43
2017-12-03T14:19:42.061Z,181.30
2017-12-03T14:22:09.513Z,197.20
2017-12-03T14:24:36.953Z,183.43
2017-12-03T14:27:04.376Z,207.53
2017-12-03T14:29:32.585Z,207.87
2017-12-03T14:32:00.067Z,183.43
2017-12-03T14:34:27.520Z,195.33
2017-12-03T14:36:54.981Z,204.17
2017-12-03T14:39:22.434Z,216.90
2017-12-03T14:41:49.891Z,243.37
2017-12-03T14:44:17.333Z,211.57
2017-12-03T14:46:44.776Z,232.07
2017-12-03T14:49:12.977Z,254.27
2017-12-03T14:51:40.441Z,242.83
2017-12-03T14:54:07.882Z,262.53
2017-12-03T14:56:35.353Z,232.97
2017-12-03T14:59:02.796Z,247.60
2017-12-03T15:01:30.224Z,258.37
2017-12-03T15:03:58.436Z,285.67
2017-12-03T15:06:25.897Z,258.77
2017-12-03T15:08:53.350Z,272.97
2017-12-03T15:11:20.786Z,305.53
2017-12-03T15:13:48.216Z,283.70
2017-12-03T15:16:16.413Z,296.97
2017-12-03T15:18:43.900Z,282.80
2017-12-03T15:21:11.465Z,300.20
2017-12-03T15:23:38.917Z,287.77
2017-12-03T15:26:06.365Z,278.57
2017-12-03T15:28:33.832Z,249.77
2017-12-03T15:31:01.265Z,235.87
2017-12-03T15:33:28.748Z,257.33
2017-12-03T15:35:56.305Z,231.83
2017-12-03T15:38:23.761Z,242.17
2017-12-03T15:40:51.189Z,237.77
2017-12-03T15:43:18.685Z,249.90
2017-12-03T15:45:46.119Z,218.30
2017-12-03T15:48:13.597Z,221.77
2017-12-03T15:50:41.150Z,233.97
2017-12-03T15:53:08.583Z,239.90
2017-12-03T15:55:36.085Z,236.17
2017-12-03T15:58:03.497Z,223.53
2017-12-03T16:00:30.932Z,201.77
2017-12-03T16:02:59.125Z,208.90
2017-12-03T16:05:26.745Z,224.83
2017-12-03T16:07:54.269Z,239.27
2017-12-03T16:10:21.736Z,251.97
2017-12-03T16:12:49.288Z,220.97
2017-12-03T16:15:16.734Z,232.07
2017-12-03T16:17:44.168Z,237.30
2017-12-03T16:20:11.657Z,265.87
2017-12-03T16:22:39.085Z,245.50
2017-12-03T16:25:06.579Z,270.33
2017-12-03T16:27:34.028Z,222.67
2017-12-03T16:30:01.485Z,263.93
2017-12-03T16:32:28.940Z,276.43
2017-12-03T16:34:56.385Z,244.93
2017-12-03T16:37:23.821Z,249.07
2017-12-03T16:39:52.028Z,279.57
2017-12-03T16:42:19.485Z,244.30
2017-12-03T16:44:46.912Z,286.73
2017-12-03T16:47:14.400Z,257.83
2017-12-03T16:49:41.863Z,268.33
2017-12-03T16:52:09.317Z,316.13
2017-12-03T16:54:36.781Z,309.70
2017-12-03T16:57:04.333Z,265.20
2017-12-03T16:59:31.765Z,347.40
2017-12-03T17:01:59.197Z,288.40
2017-12-03T17:04:27.406Z,284.47
2017-12-03T17:06:54.836Z,302.50
2017-12-03T17:09:23.041Z,346.63
2017-12-03T17:11:50.480Z,271.37
2017-12-03T17:14:17.965Z,295.90
2017-12-03T17:16:45.393Z,263.00
2017-12-03T17:19:12.881Z,251.93
2017-12-03T17:21:40.327Z,259.27
2017-12-03T17:24:07.762Z,291.47
2017-12-03T17:26:35.198Z,264.10
2017-12-03T17:29:03.424Z,297.00
2017-12-03T17:31:30.887Z,299.77
2017-12-03T17:33:58.333Z,330.27
2017-12-03T17:36:25.769Z,314.77
2017-12-03T17:38:53.258Z,317.53
2017-12-03T17:41:20.697Z,288.00
2017-12-03T17:43:48.170Z,318.07
2017-12-03T17:46:15.597Z,343.10
2017-12-03T17:48:43.053Z,305.47
2017-12-03T17:51:10.484Z,320.33
2017-12-03T17:53:38.706Z,287.63
2017-12-03T17:56:06.144Z,314.03
2017-12-03T17:58:33.572Z,432.40
2017-12-03T18:01:01.781Z,446.03
2017-12-03T18:03:29.260Z,426.10
2017-12-03T18:05:56.695Z,399.83
2017-12-03T18:08:24.126Z,434.10
2017-12-03T18:10:52.354Z,508.10
2017-12-03T18:13:19.805Z,400.80
2017-12-03T18:15:47.266Z,555.97
2017-12-03T18:18:14.708Z,416.50
2017-12-03T18:20:42.145Z,426.07
2017-12-03T18:23:09.572Z,363.13
2017-12-03T18:25:37.793Z,359.70
2017-12-03T18:28:05.212Z,320.30
2017-12-03T18:30:33.412Z,269.63
2017-12-03T18:33:00.860Z,298.20
2017-12-03T18:35:28.349Z,312.23
2017-12-03T18:37:55.780Z,266.83
2017-12-03T18:40:23.229Z,238.53
2017-12-03T18:42:51.425Z,237.90
2017-12-03T18:45:18.853Z,214.50
2017-12-03T18:47:47.069Z,191.57
2017-12-03T18:50:14.506Z,216.60
2017-12-03T18:52:41.929Z,214.93
2017-12-03T18:55:10.132Z,192.77
2017-12-03T18:57:37.584Z,226.83
2017-12-03T19:00:05.100Z,227.37
2017-12-03T19:02:32.591Z,222.90
2017-12-03T19:05:00.008Z,177.87
2017-12-03T19:07:27.461Z,195.50
2017-12-03T19:09:54.905Z,171.87
2017-12-03T19:12:22.453Z,192.70
2017-12-03T19:14:49.877Z,169.43
2017-12-03T19:17:18.091Z,155.87
2017-12-03T19:19:45.585Z,225.93
2017-12-03T19:22:13.013Z,172.00
2017-12-03T19:24:40.568Z,149.03
2017-12-03T19:27:08.017Z,148.67
2017-12-03T19:29:35.473Z,150.97
2017-12-03T19:32:02.897Z,158.97
2017-12-03T19:34:31.102Z,180.70
2017-12-03T19:36:58.588Z,154.10
2017-12-03T19:39:26.031Z,133.80
2017-12-03T19:41:53.457Z,114.47
2017-12-03T19:44:20.941Z,113.37
2017-12-03T19:46:48.392Z,72.80
2017-12-03T19:49:15.820Z,110.17
2017-12-03T19:51:44.030Z,135.10
2017-12-03T19:54:11.475Z,105.57
2017-12-03T19:56:38.936Z,118.63
2017-12-03T19:59:06.347Z,112.60
2017-12-03T20:01:34.572Z,101.40
2017-12-03T20:04:02.029Z,117.83
2017-12-03T20:06:29.489Z,103.87
2017-12-03T20:08:56.981Z,116.00
2017-12-03T20:11:24.441Z,111.83
2017-12-03T20:13:51.857Z,97.17
2017-12-03T20:16:19.307Z,92.93
2017-12-03T20:18:46.728Z,95.10
2017-12-03T20:21:14.924Z,97.87
2017-12-03T20:23:42.365Z,101.30
2017-12-03T20:26:10.566Z,108.90
2017-12-03T20:28:37.992Z,90.53
2017-12-03T20:31:06.201Z,71.87
2017-12-03T20:33:33.633Z,68.27
2017-12-03T20:36:01.061Z,64.73
2017-12-03T20:38:28.497Z,60.33
2017-12-03T20:40:55.929Z,69.30
2017-12-03T20:43:23.353Z,56.87
2017-12-03T20:45:51.569Z,63.83
2017-12-03T20:48:19.027Z,40.73
2017-12-03T20:50:46.458Z,51.67
2017-12-03T20:53:13.905Z,40.20
2017-12-03T20:55:41.332Z,43.57
2017-12-03T20:58:08.757Z,42.77
2017-12-03T21:00:36.310Z,45.30
2017-12-03T21:03:03.737Z,52.63
2017-12-03T21:05:31.166Z,39.80
2017-12-03T21:07:58.609Z,49.40
2017-12-03T21:10:26.041Z,45.97
2017-12-03T21:12:53.493Z,37.23
2017-12-03T21:15:20.941Z,44.97
2017-12-03T21:17:48.368Z,51.23
2017-12-03T21:20:16.589Z,39.43
2017-12-03T21:22:44.149Z,36.27
2017-12-03T21:25:11.580Z,51.67
2017-12-03T21:27:39.021Z,42.97
2017-12-03T21:30:07.333Z,53.27
2017-12-03T21:32:34.760Z,50.63
2017-12-03T21:35:02.188Z,43.53
2017-12-03T21:37:30.400Z,44.57
2017-12-03T21:39:57.973Z,49.10
2017-12-03T21:42:25.377Z,56.40
2017-12-03T21:44:53.584Z,33.07
2017-12-03T21:47:21.064Z,49.33
2017-12-03T21:49:48.497Z,51.37
2017-12-03T21:52:16.936Z,40.00
2017-12-03T21:54:44.374Z,44.53
2017-12-03T21:57:11.804Z,48.80
2017-12-03T21:59:39.244Z,46.57
2017-12-03T22:02:06.737Z,56.33
2017-12-03T22:04:34.173Z,40.93
2017-12-03T22:07:01.609Z,52.63
2017-12-03T22:09:29.811Z,47.23
2017-12-03T22:11:57.241Z,40.37
2017-12-03T22:14:25.553Z,44.93
2017-12-03T22:16:53.012Z,44.10
2017-12-03T22:19:21.208Z,52.90
2017-12-03T22:21:49.432Z,38.70
2017-12-03T22:24:16.925Z,36.23
2017-12-03T22:26:44.450Z,44.20
2017-12-03T22:29:11.890Z,65.47
2017-12-03T22:31:39.356Z,45.00
2017-12-03T22:34:06.784Z,61.40
2017-12-03T22:36:34.285Z,47.60
2017-12-03T22:39:01.720Z,53.93
2017-12-03T22:41:29.144Z,50.73
2017-12-03T22:43:57.473Z,62.77
2017-12-03T22:46:24.896Z,53.53
2017-12-03T22:48:52.377Z,41.13
2017-12-03T22:51:20.582Z,45.87
2017-12-03T22:53:48.064Z,38.87
2017-12-03T22:56:15.493Z,48.30
2017-12-03T22:58:42.973Z,43.43
2017-12-03T23:01:10.443Z,54.07
2017-12-03T23:03:37.868Z,53.23
2017-12-03T23:06:05.307Z,46.77
2017-12-03T23:08:33.531Z,41.23
2017-12-03T23:11:00.984Z,51.77
2017-12-03T23:13:28.437Z,39.87
2017-12-03T23:15:55.865Z,37.20
2017-12-03T23:18:23.325Z,41.23
2017-12-03T23:20:50.808Z,42.83
2017-12-03T23:23:18.232Z,36.73
2017-12-03T23:25:45.722Z,45.73
2017-12-03T23:28:13.152Z,58.63
2017-12-03T23:30:40.580Z,52.53
2017-12-03T23:33:08.087Z,34.33
2017-12-03T23:35:35.504Z,58.60
2017-12-03T23:38:03.718Z,44.33
2017-12-03T23:40:31.122Z,46.03
2017-12-03T23:42:58.565Z,41.80
2017-12-03T23:45:26.090Z,46.80
2017-12-03T23:47:53.552Z,46.20
2017-12-03T23:50:21.023Z,47.87
2017-12-03T23:52:48.415Z,47.73
2017-12-03T23:55:16.690Z,50.07
2017-12-03T23:57:44.208Z,56.03
